Time;durP1;ratioP1;P1;durP2;ratioP2;P2;SDS_P1;SDS_P2;PMS_P1;PMS_P2;Temp;Humidity;BMP_temperature;BMP_pressure;BME280_temperature;BME280_humidity;BME280_pressure;Samples;Min_cycle;Max_cycle;Signal;HPM_P1;HPM_P2
2021/03/09 00:01:19;;;;;;;7.43;4.93;;;;;;;-3.43;66.53;99773.59;1630856;85;22072;-63
2021/03/09 00:03:47;;;;;;;5.20;3.90;;;;;;;-3.42;66.42;99772.61;1673748;85;21665;-63
2021/03/09 00:06:14;;;;;;;6.57;3.97;;;;;;;-3.41;66.38;99780.36;1673898;85;21424;-63
2021/03/09 00:08:42;;;;;;;6.30;3.70;;;;;;;-3.41;66.38;99772.47;1673278;85;21203;-62
2021/03/09 00:11:10;;;;;;;4.33;3.87;;;;;;;-3.39;66.46;99781.00;1674039;85;21676;-63
2021/03/09 00:13:38;;;;;;;10.60;4.50;;;;;;;-3.36;66.45;99779.39;1673928;85;21236;-62
2021/03/09 00:16:06;;;;;;;8.10;3.40;;;;;;;-3.33;66.39;99775.61;1673873;85;21172;-63
2021/03/09 00:18:34;;;;;;;10.00;5.37;;;;;;;-3.34;66.40;99771.32;1673288;85;22256;-63
2021/03/09 00:21:01;;;;;;;5.07;3.80;;;;;;;-3.33;66.48;99771.17;1654374;85;21248;-62
2021/03/09 00:23:29;;;;;;;4.47;3.97;;;;;;;-3.29;66.49;99771.67;1646860;85;21183;-65
2021/03/09 00:25:57;;;;;;;6.10;3.17;;;;;;;-3.28;66.43;99768.89;1674032;85;21160;-62
2021/03/09 00:28:24;;;;;;;5.43;4.27;;;;;;;-3.29;66.47;99768.55;1672837;85;21152;-62
2021/03/09 00:30:52;;;;;;;7.47;4.83;;;;;;;-3.29;66.55;99759.34;1684401;84;21622;-63
2021/03/09 00:33:20;;;;;;;7.23;4.50;;;;;;;-3.30;66.57;99760.33;1678519;85;21209;-63
2021/03/09 00:35:48;;;;;;;7.83;3.73;;;;;;;-3.27;66.63;99767.09;1661468;86;21144;-63
2021/03/09 00:38:15;;;;;;;6.27;3.67;;;;;;;-3.23;66.63;99765.78;1700619;84;22366;-66
2021/03/09 00:40:43;;;;;;;6.07;3.57;;;;;;;-3.22;66.60;99760.86;1683043;85;21213;-62
2021/03/09 00:43:10;;;;;;;4.60;3.37;;;;;;;-3.21;66.61;99764.63;1668222;86;21673;-62
2021/03/09 00:45:38;;;;;;;8.27;4.67;;;;;;;-3.20;66.59;99766.77;1674935;84;21225;-63
2021/03/09 00:48:07;;;;;;;7.97;3.50;;;;;;;-3.17;66.61;99772.55;1684714;84;21612;-63
2021/03/09 00:50:35;;;;;;;5.57;4.27;;;;;;;-3.16;66.54;99776.80;1684673;85;21224;-62
2021/03/09 00:53:02;;;;;;;5.73;3.93;;;;;;;-3.17;66.56;99775.19;1684580;85;21174;-66
2021/03/09 00:55:30;;;;;;;5.40;3.83;;;;;;;-3.15;66.52;99781.58;1684613;85;21425;-61
2021/03/09 00:57:59;;;;;;;4.13;3.57;;;;;;;-3.15;66.50;99780.27;1668251;85;21681;-65
2021/03/09 01:00:29;;;;;;;4.70;3.50;;;;;;;-3.13;66.49;99779.63;1656949;86;21157;-67
2021/03/09 01:02:56;;;;;;;5.70;3.47;;;;;;;-3.13;66.39;99773.05;1658640;86;21028;-65
2021/03/09 01:05:25;;;;;;;6.33;3.43;;;;;;;-3.13;66.34;99778.31;1689112;84;22237;-63
2021/03/09 01:07:53;;;;;;;5.60;3.60;;;;;;;-3.12;66.39;99778.64;1657340;85;22313;-66
2021/03/09 01:10:21;;;;;;;4.30;2.10;;;;;;;-3.09;66.38;99783.58;1660076;86;21618;-64
2021/03/09 01:12:49;;;;;;;3.63;2.97;;;;;;;-3.07;66.32;99779.78;1676781;84;21620;-64
2021/03/09 01:15:17;;;;;;;4.20;3.10;;;;;;;-3.04;66.17;99776.52;1673943;85;21168;-66
2021/03/09 01:17:45;;;;;;;4.50;3.13;;;;;;;-3.03;66.19;99780.80;1681042;84;21609;-65
2021/03/09 01:20:14;;;;;;;4.17;2.70;;;;;;;-3.02;66.14;99779.83;1662718;85;21889;-63
2021/03/09 01:22:41;;;;;;;12.70;2.67;;;;;;;-3.02;66.09;99783.77;1701918;84;21192;-64
2021/03/09 01:25:11;;;;;;;4.17;2.60;;;;;;;-3.00;66.16;99782.61;1668024;85;21074;-62
2021/03/09 01:27:39;;;;;;;3.53;2.70;;;;;;;-2.98;66.15;99783.77;1656966;85;21189;-61
2021/03/09 01:30:10;;;;;;;4.67;2.70;;;;;;;-2.94;66.14;99783.78;1659345;86;21157;-62
2021/03/09 01:32:37;;;;;;;4.27;2.90;;;;;;;-2.90;66.08;99789.88;1674138;85;22229;-62
2021/03/09 01:35:08;;;;;;;6.27;3.20;;;;;;;-2.87;65.93;99791.34;1658927;86;21684;-62
2021/03/09 01:37:36;;;;;;;3.87;2.60;;;;;;;-2.87;65.92;99792.17;1695267;84;21638;-64
2021/03/09 01:40:08;;;;;;;3.90;2.60;;;;;;;-2.87;65.89;99785.59;1702405;83;21622;-63
2021/03/09 01:42:36;;;;;;;4.72;2.90;;;;;;;-2.84;65.91;99790.55;1702559;84;21140;-63
2021/03/09 01:45:05;;;;;;;3.77;3.20;;;;;;;-2.81;65.83;99785.44;1705654;83;21220;-62
2021/03/09 01:47:35;;;;;;;2.37;2.00;;;;;;;-2.78;65.81;99793.83;1716201;82;21617;-62
2021/03/09 01:50:05;;;;;;;2.70;2.50;;;;;;;-2.75;65.69;99794.02;1705518;83;20998;-62
2021/03/09 01:52:32;;;;;;;3.47;3.13;;;;;;;-2.72;65.67;99794.51;1705734;84;21069;-63
2021/03/09 01:55:00;;;;;;;2.57;2.30;;;;;;;-2.67;65.65;99796.16;1714649;82;21172;-61
2021/03/09 01:57:28;;;;;;;3.43;2.47;;;;;;;-2.62;65.59;99794.36;1721943;82;21309;-62
2021/03/09 01:59:56;;;;;;;4.40;2.93;;;;;;;-2.56;65.46;99800.30;1733948;82;21665;-64
2021/03/09 02:02:24;;;;;;;4.30;2.40;;;;;;;-2.53;65.26;99799.95;1712106;83;21183;-63
2021/03/09 02:04:52;;;;;;;2.30;2.10;;;;;;;-2.54;65.19;99800.94;1707740;82;21066;-63
2021/03/09 02:07:20;;;;;;;2.73;2.50;;;;;;;-2.55;65.19;99801.95;1733627;82;21182;-63
2021/03/09 02:09:47;;;;;;;3.30;2.63;;;;;;;-2.55;65.23;99806.39;1735224;82;21616;-65
2021/03/09 02:12:36;;;;;;;3.73;2.83;;;;;;;-2.52;65.30;99807.36;1735229;82;21614;-63
2021/03/09 02:15:21;;;;;;;2.80;2.60;;;;;;;-2.49;65.22;99809.17;1719444;82;21142;-62
2021/03/09 02:18:19;;;;;;;2.97;2.43;;;;;;;-2.48;65.19;99809.51;1706510;82;21050;-63
2021/03/09 02:21:19;;;;;;;2.87;2.63;;;;;;;-2.44;65.21;99813.95;1713429;82;21567;-60
2021/03/09 02:24:22;;;;;;;3.53;2.60;;;;;;;-2.44;65.20;99818.72;1735233;82;22282;-60
2021/03/09 02:27:16;;;;;;;3.23;2.40;;;;;;;-2.46;65.27;99824.66;1683892;85;21263;-62
2021/03/09 02:30:27;;;;;;;2.92;2.58;;;;;;;-2.43;65.34;99824.33;1659563;86;21180;-62
2021/03/09 02:33:17;;;;;;;2.50;2.30;;;;;;;-2.47;65.36;99823.50;1682673;83;21599;-60
2021/03/09 02:35:52;;;;;;;2.97;2.60;;;;;;;-2.54;65.66;99822.52;1702239;83;21168;-60
2021/03/09 02:38:21;;;;;;;2.87;2.50;;;;;;;-2.59;65.88;99823.50;1706382;82;21338;-60
2021/03/09 02:40:55;;;;;;;4.67;2.50;;;;;;;-2.62;66.07;99832.53;1733896;82;21203;-61
2021/03/09 02:43:22;;;;;;;;;;;;;;;-2.60;66.23;99830.56;1736370;82;21622;-60
2021/03/09 02:45:50;;;;;;;3.27;2.33;;;;;;;-2.58;66.26;99822.48;1713089;82;20317;-60
2021/03/09 02:48:25;;;;;;;3.60;2.73;;;;;;;-2.57;66.37;99833.35;1653491;86;21182;-57
2021/03/09 02:50:55;;;;;;;3.70;3.13;;;;;;;-2.59;66.41;99831.39;1672217;85;22284;-60
2021/03/09 02:53:27;;;;;;;5.53;2.73;;;;;;;-2.57;66.56;99834.67;1655298;86;21646;-60
2021/03/09 02:55:55;;;;;;;7.12;2.65;;;;;;;-2.56;66.64;99829.74;1703330;84;21196;-59
2021/03/09 02:58:23;;;;;;;4.33;2.77;;;;;;;-2.58;66.86;99836.48;1702507;84;21625;-60
2021/03/09 03:00:52;;;;;;;4.07;2.63;;;;;;;-2.59;66.97;99832.22;1704170;84;21156;-61
2021/03/09 03:03:20;;;;;;;7.63;4.60;;;;;;;-2.58;67.24;99844.38;1703672;84;22267;-60
2021/03/09 03:05:48;;;;;;;2.73;2.20;;;;;;;-2.56;67.50;99840.27;1656229;86;21187;-60
2021/03/09 03:08:16;;;;;;;3.83;2.30;;;;;;;-2.56;67.77;99849.48;1648705;86;21165;-60
2021/03/09 03:10:45;;;;;;;4.40;2.70;;;;;;;-2.59;68.02;99859.04;1653795;86;21210;-60
2021/03/09 03:13:13;;;;;;;2.50;2.30;;;;;;;-2.58;68.10;99852.27;1687905;85;21179;-58
2021/03/09 03:15:41;;;;;;;2.80;2.40;;;;;;;-2.57;68.36;99859.68;1697772;84;22891;-59
2021/03/09 03:18:12;;;;;;;3.10;2.47;;;;;;;-2.58;68.63;99859.34;1700389;84;21199;-61
2021/03/09 03:20:42;;;;;;;3.00;2.53;;;;;;;-2.61;68.81;99852.61;1704020;84;21178;-61
2021/03/09 03:23:12;;;;;;;3.23;2.30;;;;;;;-2.66;69.20;99856.21;1703907;84;21174;-59
2021/03/09 03:25:43;;;;;;;3.83;2.50;;;;;;;-2.71;69.33;99876.92;1694176;84;21211;-59
2021/03/09 03:28:10;;;;;;;1.90;1.80;;;;;;;-2.75;69.80;99872.48;1676478;84;21454;-62
2021/03/09 03:30:39;;;;;;;2.97;2.40;;;;;;;-2.81;70.38;99870.97;1681989;84;21199;-60
2021/03/09 03:33:06;;;;;;;2.87;2.53;;;;;;;-2.87;70.88;99879.49;1703897;83;21577;-60
2021/03/09 03:35:38;;;;;;;3.53;2.70;;;;;;;-2.90;71.31;99871.44;1696968;84;21230;-59
2021/03/09 03:38:06;;;;;;;2.93;2.03;;;;;;;-2.93;71.92;99894.14;1695218;84;21144;-62
2021/03/09 03:40:34;;;;;;;2.87;2.60;;;;;;;-3.00;72.61;99878.63;1687847;85;22253;-61
2021/03/09 03:43:02;;;;;;;2.00;1.90;;;;;;;-3.03;72.83;99878.97;1698287;84;21980;-60
2021/03/09 03:45:29;;;;;;;5.03;2.40;;;;;;;-3.03;73.00;99879.45;1710321;82;21047;-60
2021/03/09 03:47:59;;;;;;;2.60;2.00;;;;;;;-3.03;73.26;99880.28;1691535;84;21153;-59
2021/03/09 03:50:28;;;;;;;3.40;3.20;;;;;;;-3.03;73.33;99888.66;1729028;82;21145;-61
2021/03/09 03:53:10;;;;;;;3.23;2.43;;;;;;;-3.03;73.04;99895.23;1706174;83;22147;-59
2021/03/09 03:56:15;;;;;;;2.30;2.10;;;;;;;-3.03;73.12;99892.60;1710480;83;21859;-61
2021/03/09 03:59:06;;;;;;;3.77;2.43;;;;;;;-3.05;72.96;99898.02;1741997;81;21212;-61
2021/03/09 04:01:35;;;;;;;2.37;2.10;;;;;;;-3.05;72.54;99903.77;1748336;81;21974;-60
2021/03/09 04:04:09;;;;;;;7.87;1.80;;;;;;;-3.08;72.14;99895.70;1729101;83;21562;-60
2021/03/09 04:06:38;;;;;;;3.93;3.13;;;;;;;-3.06;72.06;99892.41;1694734;84;22303;-61
2021/03/09 04:09:07;;;;;;;2.40;2.20;;;;;;;-3.04;71.84;99893.58;1711197;83;21156;-62
2021/03/09 04:11:36;;;;;;;2.30;2.10;;;;;;;-3.05;71.30;99903.27;1717046;83;21115;-61
2021/03/09 04:14:03;;;;;;;2.63;2.43;;;;;;;-3.08;71.13;99908.86;1715372;83;21610;-62
2021/03/09 04:16:33;;;;;;;3.67;2.43;;;;;;;-3.11;70.92;99917.87;1694634;84;21586;-61
2021/03/09 04:19:02;;;;;;;4.47;2.30;;;;;;;-3.17;70.39;99911.95;1688862;84;21289;-61
2021/03/09 04:21:30;;;;;;;2.30;2.10;;;;;;;-3.14;70.22;99916.89;1697458;84;21226;-61
2021/03/09 04:23:58;;;;;;;3.13;2.83;;;;;;;-3.08;70.11;99923.33;1686323;83;21661;-62
2021/03/09 04:26:26;;;;;;;3.90;2.30;;;;;;;-2.99;70.01;99932.08;1711151;83;21220;-61
2021/03/09 04:28:53;;;;;;;3.00;2.80;;;;;;;-2.94;69.70;99926.69;1690539;83;21586;-62
2021/03/09 04:31:21;;;;;;;2.53;2.33;;;;;;;-2.91;69.06;99932.94;1755646;81;21471;-60
2021/03/09 04:33:49;;;;;;;2.70;2.50;;;;;;;-2.97;69.11;99940.13;1733363;81;21931;-60
2021/03/09 04:36:17;;;;;;;2.43;2.07;;;;;;;-2.95;69.27;99935.55;1736820;81;21698;-61
2021/03/09 04:38:46;;;;;;;2.60;2.40;;;;;;;-2.93;68.98;99936.23;1692185;83;21121;-61
2021/03/09 04:41:15;;;;;;;3.63;2.13;;;;;;;-2.93;69.00;99941.50;1684502;83;21201;-61
2021/03/09 04:43:43;;;;;;;3.00;2.10;;;;;;;-2.93;69.01;99941.50;1704601;83;22387;-62
2021/03/09 04:46:10;;;;;;;5.13;2.50;;;;;;;-2.90;69.00;99943.80;1720533;83;21695;-61
2021/03/09 04:48:39;;;;;;;2.60;2.17;;;;;;;-2.97;69.15;99941.45;1696762;83;21202;-62
2021/03/09 04:51:11;;;;;;;2.30;2.10;;;;;;;-3.11;69.58;99948.13;1706010;84;21073;-61
2021/03/09 04:53:39;;;;;;;2.33;2.20;;;;;;;-3.16;69.94;99953.03;1712194;82;21129;-61
2021/03/09 04:56:08;;;;;;;3.40;3.03;;;;;;;-3.09;70.09;99956.70;1733187;82;21361;-62
2021/03/09 04:58:36;;;;;;;3.27;2.93;;;;;;;-3.02;70.20;99947.67;1719887;82;21246;-62
2021/03/09 05:01:05;;;;;;;3.10;2.63;;;;;;;-3.04;70.33;99945.70;1706180;82;21152;-61
2021/03/09 05:03:33;;;;;;;4.93;3.53;;;;;;;-3.02;70.68;99956.08;1708370;82;21593;-61
2021/03/09 05:06:03;;;;;;;6.90;3.40;;;;;;;-3.03;71.31;99955.26;1719953;82;21606;-61
2021/03/09 05:08:31;;;;;;;5.67;4.13;;;;;;;-2.97;71.44;99959.07;1721527;82;21218;-63
2021/03/09 05:10:58;;;;;;;7.13;4.50;;;;;;;-3.02;71.96;99956.88;1718431;82;21673;-61
2021/03/09 05:13:28;;;;;;;8.97;4.77;;;;;;;-3.10;71.96;99969.52;1712265;83;21562;-61
2021/03/09 05:15:56;;;;;;;11.50;6.57;;;;;;;-3.17;72.07;99967.18;1735198;82;22477;-60
2021/03/09 05:18:23;;;;;;;6.00;4.50;;;;;;;-3.20;72.43;99971.91;1723315;82;21660;-62
2021/03/09 05:20:51;;;;;;;7.10;4.60;;;;;;;-3.20;72.58;99974.05;1706004;82;22934;-61
2021/03/09 05:23:19;;;;;;;5.67;4.17;;;;;;;-3.16;72.66;99982.45;1705994;84;21132;-61
2021/03/09 05:25:46;;;;;;;7.37;4.80;;;;;;;-3.11;72.59;99986.27;1731241;82;21050;-61
2021/03/09 05:28:14;;;;;;;4.47;3.73;;;;;;;-3.02;72.49;99991.08;1725701;82;21188;-62
2021/03/09 05:30:42;;;;;;;5.80;4.47;;;;;;;-3.02;72.29;99993.71;1705915;84;21177;-63
2021/03/09 05:33:10;;;;;;;4.90;3.47;;;;;;;-3.08;72.09;100002.25;1706015;84;22775;-61
2021/03/09 05:35:38;;;;;;;3.90;3.50;;;;;;;-3.13;71.98;100007.14;1705911;84;21156;-60
2021/03/09 05:38:05;;;;;;;6.47;5.00;;;;;;;-3.10;71.72;100014.72;1713463;82;21601;-61
2021/03/09 05:40:33;;;;;;;4.30;3.60;;;;;;;-3.13;71.63;100013.72;1708265;82;21161;-61
2021/03/09 05:43:00;;;;;;;5.07;4.53;;;;;;;-3.14;71.67;100022.59;1705735;84;21188;-60
2021/03/09 05:45:29;;;;;;;3.50;3.20;;;;;;;-3.18;71.62;100018.61;1705710;84;21623;-59
2021/03/09 05:47:58;;;;;;;3.97;3.07;;;;;;;-3.16;71.58;100023.22;1708633;82;21176;-60
2021/03/09 05:50:26;;;;;;;4.93;4.23;;;;;;;-3.12;71.51;100029.33;1728489;82;21241;-62
2021/03/09 05:52:54;;;;;;;4.17;3.37;;;;;;;-3.13;70.94;100031.65;1692866;84;21158;-60
2021/03/09 05:55:23;;;;;;;5.40;3.87;;;;;;;-3.24;70.56;100038.45;1706052;84;21587;-60
2021/03/09 05:57:50;;;;;;;5.47;4.73;;;;;;;-3.21;70.61;100038.62;1706550;82;21349;-59
2021/03/09 06:00:21;;;;;;;3.47;2.87;;;;;;;-3.15;70.40;100050.69;1706011;84;21169;-60
2021/03/09 06:02:50;;;;;;;10.47;6.00;;;;;;;-3.13;69.28;100044.80;1705460;83;21132;-60
2021/03/09 06:05:19;;;;;;;11.40;5.10;;;;;;;-3.16;68.67;100050.34;1705986;84;21574;-60
2021/03/09 06:07:46;;;;;;;12.23;6.03;;;;;;;-3.15;68.18;100054.64;1689446;82;22250;-61
2021/03/09 06:10:24;;;;;;;8.47;4.83;;;;;;;-3.15;67.74;100061.70;1712459;82;21383;-61
2021/03/09 06:12:52;;;;;;;12.17;7.07;;;;;;;-3.19;67.17;100071.70;1704876;84;21210;-60
2021/03/09 06:15:20;;;;;;;7.23;5.13;;;;;;;-3.24;66.93;100066.56;1705537;83;21796;-60
2021/03/09 06:17:58;;;;;;;5.10;4.10;;;;;;;-3.13;66.65;100068.47;1706115;82;21134;-61
2021/03/09 06:20:30;;;;;;;5.43;3.60;;;;;;;-2.98;65.54;100077.13;1713583;82;21110;-62
2021/03/09 06:22:59;;;;;;;9.10;5.00;;;;;;;-2.93;63.80;100081.44;1721583;82;21202;-60
2021/03/09 06:25:33;;;;;;;10.43;4.93;;;;;;;-2.92;64.07;100076.00;1683549;85;21183;-58
2021/03/09 06:28:03;;;;;;;6.15;4.10;;;;;;;-2.93;63.04;100078.81;1683799;85;21021;-61
2021/03/09 06:30:34;;;;;;;7.03;3.70;;;;;;;-2.96;62.63;100087.82;1679753;85;21154;-60
2021/03/09 06:33:03;;;;;;;6.80;4.70;;;;;;;-3.07;62.23;100083.63;1706226;84;21180;-60
2021/03/09 06:35:38;;;;;;;4.40;3.70;;;;;;;-3.22;62.68;100094.37;1706087;84;21253;-61
2021/03/09 06:38:29;;;;;;;3.50;2.80;;;;;;;-3.39;62.28;100096.51;1723137;82;21129;-61
2021/03/09 06:41:14;;;;;;;4.27;3.37;;;;;;;-3.34;62.65;100098.69;1734730;82;21125;-59
2021/03/09 06:43:48;;;;;;;4.37;3.37;;;;;;;-3.25;62.72;100093.34;1712704;82;21253;-60
2021/03/09 06:46:20;;;;;;;4.80;4.07;;;;;;;-3.33;62.67;100093.28;1733530;82;21719;-61
2021/03/09 06:49:03;;;;;;;4.73;3.73;;;;;;;-3.35;62.12;100099.17;1735197;82;21224;-60
2021/03/09 06:51:34;;;;;;;5.80;2.95;;;;;;;-3.30;62.08;100110.55;1724926;82;21138;-61
2021/03/09 06:54:13;;;;;;;3.63;2.63;;;;;;;-3.21;62.19;100118.36;1718933;82;21200;-61
2021/03/09 06:56:44;;;;;;;4.63;2.80;;;;;;;-3.13;61.15;100118.94;1705749;84;21200;-59
2021/03/09 06:59:30;;;;;;;4.63;4.13;;;;;;;-3.18;60.94;100110.19;1705869;84;21577;-60
2021/03/09 07:02:18;;;;;;;7.30;5.10;;;;;;;-3.14;60.98;100110.70;1719655;82;22290;-61
2021/03/09 07:04:52;;;;;;;10.60;5.77;;;;;;;-3.04;60.98;100110.62;1735230;82;21165;-62
2021/03/09 07:07:33;;;;;;;24.60;11.27;;;;;;;-2.92;61.21;100110.70;1735049;82;22236;-61
2021/03/09 07:10:05;;;;;;;8.17;6.20;;;;;;;-2.82;60.84;100116.20;1720506;82;21169;-63
2021/03/09 07:12:34;;;;;;;;;;;;;;;-2.84;60.01;100119.50;1718852;82;21590;-59
2021/03/09 07:15:03;;;;;;;23.33;14.87;;;;;;;-2.81;60.29;100122.30;1706182;83;22104;-59
2021/03/09 07:17:32;;;;;;;172.03;76.20;;;;;;;-2.78;60.25;100120.18;1706108;83;21033;-61
2021/03/09 07:20:01;;;;;;;49.30;23.17;;;;;;;-2.80;60.57;100122.16;1709647;82;21184;-61
2021/03/09 07:22:30;;;;;;;27.90;15.07;;;;;;;-2.83;60.87;100125.08;1715435;82;21205;-62
2021/03/09 07:25:14;;;;;;;10.60;8.00;;;;;;;-2.81;60.86;100127.08;1708052;82;21041;-60
2021/03/09 07:28:01;;;;;;;5.37;3.40;;;;;;;-2.84;60.44;100122.13;1706227;84;21391;-61
2021/03/09 07:30:37;;;;;;;4.10;3.50;;;;;;;-2.78;60.13;100124.13;1727557;82;21201;-60
2021/03/09 07:33:04;;;;;;;4.03;3.50;;;;;;;-2.65;60.05;100136.91;1688974;83;21178;-61
2021/03/09 07:35:32;;;;;;;2.70;2.50;;;;;;;-2.60;59.32;100129.86;1723581;82;21189;-60
2021/03/09 07:38:00;;;;;;;5.27;3.77;;;;;;;-2.64;59.40;100143.31;1728242;82;21176;-60
2021/03/09 07:40:30;;;;;;;5.27;4.13;;;;;;;-2.59;59.31;100131.52;1718232;82;22071;-59
2021/03/09 07:42:57;;;;;;;4.70;3.07;;;;;;;-2.48;59.43;100134.70;1706046;84;21144;-61
2021/03/09 07:45:30;;;;;;;3.30;2.53;;;;;;;-2.31;59.16;100136.95;1717814;82;21209;-59
2021/03/09 07:48:07;;;;;;;2.33;2.10;;;;;;;-2.23;58.40;100142.25;1720848;82;21583;-63
2021/03/09 07:50:40;;;;;;;2.97;2.67;;;;;;;-2.25;57.92;100137.14;1662235;86;21137;-59
2021/03/09 07:53:16;;;;;;;3.67;2.67;;;;;;;-2.21;58.01;100129.77;1661596;86;22291;-61
2021/03/09 07:55:47;;;;;;;4.23;2.50;;;;;;;-2.15;57.83;100129.61;1673976;84;21137;-61
2021/03/09 07:58:23;;;;;;;12.77;6.70;;;;;;;-2.08;57.50;100120.09;1688299;84;21614;-59
2021/03/09 08:01:05;;;;;;;66.30;32.83;;;;;;;-2.06;57.80;100128.69;1673743;85;21224;-59
2021/03/09 08:03:37;;;;;;;14.58;9.10;;;;;;;-2.09;60.22;100125.03;1662271;86;21604;-61
2021/03/09 08:06:17;;;;;;;10.37;6.10;;;;;;;-2.18;61.73;100121.54;1689938;84;21358;-60
2021/03/09 08:08:54;;;;;;;4.20;3.20;;;;;;;-2.26;63.16;100122.34;1696284;83;21220;-61
2021/03/09 08:11:27;;;;;;;4.30;3.20;;;;;;;-2.41;64.81;100129.65;1700156;83;21149;-60
2021/03/09 08:14:15;;;;;;;4.47;3.85;;;;;;;-2.47;66.00;100132.41;1703584;83;22237;-61
2021/03/09 08:16:43;;;;;;;7.07;4.63;;;;;;;-2.56;68.09;100135.98;1695471;83;21161;-63
2021/03/09 08:19:16;;;;;;;7.00;4.73;;;;;;;-2.62;68.83;100135.76;1689971;84;21184;-61
2021/03/09 08:21:57;;;;;;;10.83;5.67;;;;;;;-2.62;69.34;100141.02;1697494;83;21740;-60
2021/03/09 08:24:46;;;;;;;15.03;9.10;;;;;;;-2.73;69.18;100142.92;1698423;83;21587;-62
2021/03/09 08:27:33;;;;;;;7.80;5.43;;;;;;;-2.75;69.55;100137.00;1729104;81;21187;-66
2021/03/09 08:30:25;;;;;;;11.43;8.50;;;;;;;-2.82;69.67;100153.54;1690017;84;21226;-61
2021/03/09 08:32:52;;;;;;;7.67;6.55;;;;;;;-2.81;69.06;100142.88;1690141;83;22135;-60
2021/03/09 08:35:33;;;;;;;7.10;4.13;;;;;;;-2.74;69.13;100143.09;1662963;84;21203;-61
2021/03/09 08:38:13;;;;;;;36.17;20.10;;;;;;;-2.60;68.74;100146.48;1662114;86;21600;-61
2021/03/09 08:41:03;;;;;;;17.93;11.30;;;;;;;-2.61;66.51;100150.09;1689935;84;21368;-61
2021/03/09 08:43:30;;;;;;;7.57;6.13;;;;;;;-2.71;64.14;100162.03;1693253;84;21551;-61
2021/03/09 08:46:00;;;;;;;9.73;6.83;;;;;;;-2.70;63.74;100161.55;1734796;81;21151;-61
2021/03/09 08:48:49;;;;;;;9.57;6.30;;;;;;;-2.71;63.18;100162.52;1715556;83;21183;-59
2021/03/09 08:51:42;;;;;;;6.90;2.67;;;;;;;-2.72;62.92;100168.27;1731758;82;21658;-61
2021/03/09 08:54:25;;;;;;;4.80;4.33;;;;;;;-2.73;60.62;100167.92;1712788;83;21601;-60
2021/03/09 08:56:55;;;;;;;6.37;4.17;;;;;;;-2.73;59.74;100163.98;1734620;82;21647;-60
2021/03/09 08:59:24;;;;;;;11.43;6.53;;;;;;;-2.61;59.99;100165.06;1735757;82;22377;-59
2021/03/09 09:01:53;;;;;;;5.83;3.87;;;;;;;-2.42;59.93;100171.44;1735384;82;21153;-60
2021/03/09 09:04:21;;;;;;;4.87;3.23;;;;;;;-2.21;59.38;100162.18;1735353;82;21153;-59
2021/03/09 09:06:49;;;;;;;6.67;3.40;;;;;;;-2.14;58.60;100158.92;1734864;82;21544;-60
2021/03/09 09:09:36;;;;;;;4.57;3.33;;;;;;;-2.08;58.73;100155.19;1732440;82;21686;-60
2021/03/09 09:12:26;;;;;;;3.07;2.50;;;;;;;-1.98;56.69;100158.53;1711739;82;22289;-61
2021/03/09 09:15:11;;;;;;;8.37;3.07;;;;;;;-2.01;53.26;100169.37;1706132;84;21653;-60
2021/03/09 09:17:41;;;;;;;2.87;2.60;;;;;;;-2.07;52.85;100163.43;1706724;82;22291;-61
2021/03/09 09:20:19;;;;;;;3.47;2.57;;;;;;;-2.22;51.85;100164.98;1706099;84;21646;-61
2021/03/09 09:22:47;;;;;;;3.03;2.73;;;;;;;-2.21;52.92;100176.67;1706078;83;21204;-62
2021/03/09 09:25:15;;;;;;;5.00;3.60;;;;;;;-2.05;52.58;100173.80;1706030;84;21563;-62
2021/03/09 09:27:51;;;;;;;2.67;2.47;;;;;;;-1.93;52.06;100172.06;1729695;82;21010;-62
2021/03/09 09:30:26;;;;;;;7.00;3.53;;;;;;;-1.82;51.54;100174.39;1705500;83;21168;-61
2021/03/09 09:32:56;;;;;;;6.33;2.87;;;;;;;-1.70;51.22;100167.53;1704602;83;21185;-60
2021/03/09 09:35:27;;;;;;;5.50;4.17;;;;;;;-1.66;49.80;100178.91;1706143;84;21579;-61
2021/03/09 09:38:06;;;;;;;2.07;1.87;;;;;;;-1.64;49.15;100174.81;1734516;82;23044;-61
2021/03/09 09:40:52;;;;;;;8.57;6.30;;;;;;;-1.83;47.97;100178.53;1734559;82;21153;-61
2021/03/09 09:43:26;;;;;;;8.43;4.93;;;;;;;-1.86;48.77;100168.28;1718136;82;21185;-63
2021/03/09 09:46:01;;;;;;;56.00;28.30;;;;;;;-1.78;47.94;100167.02;1733283;82;21644;-62
2021/03/09 09:48:32;;;;;;;50.20;25.87;;;;;;;-1.74;47.55;100176.26;1699277;82;21669;-62
2021/03/09 09:51:03;;;;;;;12.57;7.17;;;;;;;-1.67;47.72;100171.16;1644582;87;22849;-62
2021/03/09 09:53:39;;;;;;;3.93;3.63;;;;;;;-1.59;46.93;100175.16;1710821;83;21029;-64
2021/03/09 09:56:19;;;;;;;2.77;2.57;;;;;;;-1.56;46.90;100186.20;1699975;84;21745;-62
2021/03/09 09:58:53;;;;;;;3.77;2.87;;;;;;;-1.47;45.82;100181.29;1697018;83;21160;-62
2021/03/09 10:01:40;;;;;;;4.00;3.27;;;;;;;-1.49;44.62;100188.55;1684063;84;21148;-62
2021/03/09 10:04:09;;;;;;;5.90;3.37;;;;;;;-1.49;44.91;100180.64;1673615;85;22328;-62
2021/03/09 10:06:47;;;;;;;3.63;3.00;;;;;;;-1.45;45.16;100183.77;1673320;84;21652;-61
2021/03/09 10:09:23;;;;;;;3.70;2.90;;;;;;;-1.52;44.49;100186.70;1687868;85;21069;-62
2021/03/09 10:11:55;;;;;;;5.27;2.97;;;;;;;-1.52;45.03;100189.34;1681147;84;21620;-62
2021/03/09 10:14:26;;;;;;;3.10;2.53;;;;;;;-1.40;45.22;100196.82;1688132;83;21149;-62
2021/03/09 10:16:54;;;;;;;5.67;2.20;;;;;;;-1.31;44.42;100188.42;1658157;85;21390;-65
2021/03/09 10:19:22;;;;;;;6.13;2.63;;;;;;;-1.27;43.99;100187.11;1687888;85;21632;-62
2021/03/09 10:21:54;;;;;;;2.40;2.20;;;;;;;-1.28;43.62;100186.77;1680614;84;21706;-62
2021/03/09 10:24:31;;;;;;;7.93;4.30;;;;;;;-1.28;43.16;100185.95;1692534;83;21155;-61
2021/03/09 10:27:00;;;;;;;3.80;2.93;;;;;;;-1.22;43.80;100176.90;1691675;83;21923;-62
2021/03/09 10:29:29;;;;;;;4.20;3.10;;;;;;;-1.10;43.94;100172.12;1705375;82;21321;-62
2021/03/09 10:32:02;;;;;;;3.90;2.73;;;;;;;-0.95;43.95;100180.56;1711472;82;21186;-62
2021/03/09 10:34:37;;;;;;;3.40;2.90;;;;;;;-0.81;43.48;100172.47;1729510;82;21605;-63
2021/03/09 10:37:13;;;;;;;2.47;2.23;;;;;;;-0.74;42.34;100172.16;1712658;82;21089;-62
2021/03/09 10:39:59;;;;;;;4.10;2.50;;;;;;;-0.80;42.11;100178.58;1727769;82;21802;-65
2021/03/09 10:42:36;;;;;;;3.83;3.50;;;;;;;-0.93;42.18;100181.23;1720157;82;21411;-64
2021/03/09 10:45:29;;;;;;;4.00;3.53;;;;;;;-0.97;42.36;100187.83;1722524;82;21199;-66
2021/03/09 10:48:00;;;;;;;2.98;2.72;;;;;;;-0.99;42.76;100191.12;1704735;83;21143;-68
2021/03/09 10:50:39;;;;;;;3.63;3.33;;;;;;;-0.97;43.22;100193.11;1734609;82;21536;-66
2021/03/09 10:53:06;;;;;;;4.30;3.90;;;;;;;-1.05;43.48;100187.80;1709193;83;21026;-65
2021/03/09 10:55:34;;;;;;;4.00;3.70;;;;;;;-1.12;44.51;100188.63;1684040;85;22284;-67
2021/03/09 10:58:02;;;;;;;3.97;2.47;;;;;;;-1.21;45.70;100191.75;1709738;83;21216;-61
2021/03/09 11:00:30;;;;;;;2.50;2.10;;;;;;;-1.25;46.70;100195.70;1733330;82;21663;-63
2021/03/09 11:02:58;;;;;;;3.70;2.47;;;;;;;-1.29;48.25;100222.58;1735166;82;21169;-62
2021/03/09 11:05:26;;;;;;;4.97;2.37;;;;;;;-1.39;48.91;100206.88;1735213;82;21164;-61
2021/03/09 11:07:53;;;;;;;3.23;2.90;;;;;;;-1.49;48.69;100218.05;1735185;82;21372;-61
2021/03/09 11:10:20;;;;;;;3.40;2.60;;;;;;;-1.53;48.10;100212.25;1710342;82;21058;-64
2021/03/09 11:12:48;;;;;;;2.93;1.97;;;;;;;-1.53;47.31;100214.89;1708465;82;21601;-64
2021/03/09 11:15:17;;;;;;;2.27;2.07;;;;;;;-1.63;46.31;100227.37;1705644;84;21184;-62
2021/03/09 11:17:45;;;;;;;2.87;2.67;;;;;;;-1.70;46.80;100214.50;1706005;84;21136;-65
2021/03/09 11:20:17;;;;;;;1.93;1.83;;;;;;;-1.69;47.45;100220.60;1708085;82;21167;-63
2021/03/09 11:22:45;;;;;;;3.30;2.43;;;;;;;-1.62;47.75;100215.02;1683261;85;21594;-64
2021/03/09 11:25:14;;;;;;;4.43;2.87;;;;;;;-1.61;47.28;100205.63;1700885;84;21192;-64
2021/03/09 11:27:41;;;;;;;3.67;3.30;;;;;;;-1.52;47.34;100213.08;1683443;85;21206;-62
2021/03/09 11:30:11;;;;;;;2.47;2.20;;;;;;;-1.43;47.27;100203.72;1702738;83;21107;-61
2021/03/09 11:32:38;;;;;;;2.50;1.83;;;;;;;-1.36;46.57;100210.02;1729276;82;22449;-64
2021/03/09 11:35:08;;;;;;;5.43;2.83;;;;;;;-1.35;44.77;100213.00;1735262;82;21133;-61
2021/03/09 11:37:35;;;;;;;2.90;2.70;;;;;;;-1.35;44.57;100216.95;1735129;82;21034;-64
2021/03/09 11:40:09;;;;;;;3.97;2.03;;;;;;;-1.34;43.82;100217.27;1717077;82;21125;-63
2021/03/09 11:42:36;;;;;;;;;;;;;;;-1.33;43.88;100234.75;1732293;82;21117;-61
2021/03/09 11:45:05;;;;;;;2.93;2.10;;;;;;;-1.31;43.01;100226.69;1670502;85;21358;-66
2021/03/09 11:47:35;;;;;;;3.57;3.10;;;;;;;-1.35;42.77;100217.44;1703034;84;21171;-63
2021/03/09 11:50:05;;;;;;;3.23;2.50;;;;;;;-1.33;43.15;100219.41;1658957;85;21140;-61
2021/03/09 11:52:34;;;;;;;2.30;2.20;;;;;;;-1.24;42.92;100219.76;1706121;82;21140;-62